Aurora, CO (80016)

2:34 AM MDT on September 18, 2014 (GMT -0600)
Greenfield | Change Station
CLOSE
Current Station
Personal Weather Station
Location: Centennial, CO
Elevation: 5810 ft
Nearby Weather Stations

Elev 5810 ft 39.60 °N, 104.75 °W | Updated 2 seconds ago

Clear
Clear
58.0 °F
Feels Like 58.0 °F
N
0.4
Wind Variable Wind from ENE
Gusts 1.3 mph

Today
High -- | Low -- °F
--% Chance of Precip.
Yesterday
High -- | Low -- °F
Precip. -- in
6:42 AM 7:02 PM
Waning Crescent, 29% visible
Pressure 29.89 in
Visibility 10.0 miles
Clouds Few 12000 ft
Few 20000 ft
Dew Point 43 °F
Humidity 58%
Rainfall 0.00 in
Snow Depth Not available.
UV 0 out of 12
Pollen 7.70 out of 12
Ozone Good
PM2.5 Good
Flu Activity Not available.
METAR KAPA 180753Z 17007KT 10SM FEW120 FEW200 14/07 A3011 RMK AO2 SLP122 T01440072

More Conditions Fewer Conditions

Pressure 29.89 in
Visibility 10.0 miles
Clouds Few 12000 ft
Few 20000 ft
Dew Point 43 °F
Humidity 58%
Rainfall 0.00 in
Snow Depth Not available.
UV 0 out of 12
Pollen 7.70 out of 12
Ozone Good
PM2.5 Good
Flu Activity Not available.
METAR KAPA 180753Z 17007KT 10SM FEW120 FEW200 14/07 A3011 RMK AO2 SLP122 T01440072

More Conditions Fewer Conditions

10-Day Weather Forecast

Almanac

Astronomy

Sep. 18, 2014 Rise Set
Actual Time 6:42 AM MDT 7:02 PM MDT
Civil Twilight 6:15 AM MDT 7:29 PM MDT
Nautical Twilight 5:44 AM MDT 8:00 PM MDT
Astronomical Twilight 5:11 AM MDT 8:33 PM MDT
Moon 1:38 AM MDT 3:54 PM MDT
Length of Visible Light 13h 13m
Length of Day
12h 19m
Tomorrow will be 2m 35s shorter.
Waning Crescent, 29% of the Moon is Illuminated
Today
Waning Crescent
Sep 24
New
Oct 1
First Quarter
Oct 8
Full
Oct 15
Last Quarter

Today's Extremes

State Highs State Lows

Community

WunderPhotos

Upload Photos

1,754,310 photos uploaded!

Nearby

Air Quality

  Air Quality AQ Index Pollutant
Yesterday Good
OZONE
Yesterday Good
PM10
Current Good
OZONE
Current Good
PM2.5
Thursday Good
OZONE
Thursday Good
PM2.5

Snow Depth

Station Depth Elevation
Idarado 0 in 9800 ft
Willow Creek Pass 1 in 9540 ft
Echo Lake 0 in 10600 ft
Scotch Creek 0 in 9100 ft
Arapaho Ridge 1 in 10960 ft

Earthquake Activity

City Distance Mag. Time & Date
No recent earthquake activity has been reported nearby.
Minimum magnitude displayed is 2.5.

Coastal Water Temperatures

Place Temperature
No Stations Reporting

Nearby Weather Stations